Time;durP1;ratioP1;P1;durP2;ratioP2;P2;SDS_P1;SDS_P2;PMS_P1;PMS_P2;Temp;Humidity;BMP_temperature;BMP_pressure;BME280_temperature;BME280_humidity;BME280_pressure;Samples;Min_cycle;Max_cycle;Signal;HPM_P1;HPM_P2
2023/10/29 00:02:01;;;;;;;3.97;1.00;;;14.70;99.90;;;;;;4987750;28;20721;-77
2023/10/29 00:04:32;;;;;;;3.20;1.30;;;14.70;99.90;;;;;;4985706;28;20619;-76
2023/10/29 00:06:58;;;;;;;2.50;1.27;;;14.70;99.90;;;;;;4987057;28;20683;-76
2023/10/29 00:09:24;;;;;;;2.83;1.03;;;14.70;99.90;;;;;;4982318;28;20598;-77
2023/10/29 00:11:49;;;;;;;3.50;1.30;;;14.80;99.90;;;;;;4972163;28;20188;-77
2023/10/29 00:14:15;;;;;;;2.37;1.00;;;14.80;99.90;;;;;;4975443;28;20942;-76
2023/10/29 00:16:41;;;;;;;2.27;1.13;;;14.80;99.90;;;;;;4990416;28;20179;-76
2023/10/29 00:19:06;;;;;;;1.90;0.80;;;14.90;99.90;;;;;;4971712;28;20176;-76
2023/10/29 00:21:34;;;;;;;1.53;0.77;;;14.90;99.90;;;;;;4970851;28;20227;-77
2023/10/29 00:24:00;;;;;;;2.40;0.80;;;15.00;99.90;;;;;;4980754;28;20206;-75
2023/10/29 00:26:26;;;;;;;2.63;0.83;;;15.10;99.90;;;;;;4982090;28;20646;-76
2023/10/29 00:28:52;;;;;;;1.87;0.70;;;15.20;99.90;;;;;;4975104;28;20706;-76
2023/10/29 00:31:17;;;;;;;4.03;0.90;;;15.20;99.90;;;;;;4962376;28;20914;-78
2023/10/29 00:33:43;;;;;;;2.60;0.70;;;15.30;99.90;;;;;;4970665;28;20186;-77
2023/10/29 00:36:10;;;;;;;2.23;0.80;;;15.40;99.90;;;;;;4980840;28;20179;-77
2023/10/29 00:38:36;;;;;;;1.67;0.70;;;15.50;99.90;;;;;;4975786;28;20221;-78
2023/10/29 00:41:02;;;;;;;2.20;0.80;;;15.50;99.90;;;;;;4983346;28;20630;-77
2023/10/29 00:43:28;;;;;;;2.80;0.77;;;15.60;99.90;;;;;;4954495;28;21358;-78
2023/10/29 00:45:54;;;;;;;2.87;0.90;;;15.70;99.90;;;;;;4970263;28;20670;-78
2023/10/29 00:48:21;;;;;;;5.43;1.13;;;15.70;99.90;;;;;;4979216;28;20189;-78
2023/10/29 00:50:47;;;;;;;2.10;0.90;;;15.70;99.90;;;;;;4954045;28;20619;-78
2023/10/29 00:53:13;;;;;;;3.07;1.00;;;15.80;99.90;;;;;;4986523;28;20948;-78
2023/10/29 00:55:40;;;;;;;3.23;0.93;;;15.80;99.90;;;;;;4954346;28;20591;-77
2023/10/29 00:58:06;;;;;;;1.60;0.70;;;15.90;99.90;;;;;;4972744;28;20625;-77
2023/10/29 01:00:31;;;;;;;1.87;0.80;;;15.90;99.90;;;;;;4976337;28;20749;-77
2023/10/29 01:02:57;;;;;;;2.23;0.80;;;15.90;99.90;;;;;;4973091;28;20176;-78
2023/10/29 01:05:23;;;;;;;1.97;1.00;;;16.00;99.90;;;;;;4954175;28;20286;-78
2023/10/29 01:07:51;;;;;;;1.80;0.80;;;16.00;99.90;;;;;;4961747;28;20649;-78
2023/10/29 01:10:17;;;;;;;1.87;0.63;;;16.10;99.90;;;;;;4961699;28;21200;-78
2023/10/29 01:12:44;;;;;;;1.70;0.70;;;16.10;99.90;;;;;;4972419;28;20698;-78
2023/10/29 01:15:10;;;;;;;3.33;0.70;;;16.20;99.90;;;;;;4973858;28;20186;-78
2023/10/29 01:17:36;;;;;;;2.13;0.73;;;16.20;99.90;;;;;;4974746;28;20590;-78
2023/10/29 01:20:02;;;;;;;1.83;0.60;;;16.20;99.90;;;;;;4956909;28;20241;-78
2023/10/29 01:22:27;;;;;;;1.30;0.60;;;16.30;99.90;;;;;;4985578;28;20600;-78
2023/10/29 01:24:53;;;;;;;2.10;0.70;;;16.30;99.90;;;;;;4961204;28;20826;-78
2023/10/29 01:27:21;;;;;;;1.80;0.63;;;16.40;99.90;;;;;;4974499;28;20230;-78
2023/10/29 01:29:48;;;;;;;1.50;0.60;;;16.40;99.90;;;;;;4973645;28;20599;-78
2023/10/29 01:32:14;;;;;;;2.20;0.77;;;16.40;99.90;;;;;;4974544;28;20649;-78
2023/10/29 01:34:39;;;;;;;1.93;0.70;;;16.40;99.90;;;;;;4982780;28;20936;-79
2023/10/29 01:37:05;;;;;;;3.40;0.60;;;16.50;99.90;;;;;;4973196;28;20267;-78
2023/10/29 01:39:31;;;;;;;2.13;0.70;;;16.50;99.90;;;;;;4973899;28;20650;-78
2023/10/29 01:41:57;;;;;;;2.53;0.60;;;16.50;99.90;;;;;;4957156;28;20286;-79
2023/10/29 01:44:23;;;;;;;3.40;0.70;;;16.50;99.90;;;;;;4974652;28;20527;-78
2023/10/29 01:46:50;;;;;;;3.20;0.73;;;16.60;99.90;;;;;;4981142;28;21204;-79
2023/10/29 01:49:15;;;;;;;1.97;0.60;;;16.60;99.90;;;;;;4989337;28;20587;-79
2023/10/29 01:51:41;;;;;;;2.33;0.60;;;16.60;99.90;;;;;;4979636;28;20671;-79
2023/10/29 01:54:08;;;;;;;2.27;0.80;;;16.60;99.90;;;;;;4974602;28;20215;-79
2023/10/29 01:56:34;;;;;;;1.30;0.53;;;16.60;99.90;;;;;;4961625;28;21147;-78
2023/10/29 01:59:00;;;;;;;2.00;0.60;;;16.60;99.90;;;;;;4959827;28;20194;-79
2023/10/29 02:01:27;;;;;;;2.17;0.50;;;16.60;99.90;;;;;;4956772;28;20696;-79
2023/10/29 02:03:53;;;;;;;1.50;0.50;;;16.60;99.90;;;;;;4989165;28;20873;-79
2023/10/29 02:06:19;;;;;;;2.03;0.63;;;16.70;99.90;;;;;;4974081;28;20737;-79
2023/10/29 02:08:45;;;;;;;3.10;0.70;;;16.70;99.90;;;;;;4955839;28;20238;-79
2023/10/29 02:11:11;;;;;;;2.37;0.70;;;16.70;99.90;;;;;;4974464;28;20959;-79
2023/10/29 02:13:37;;;;;;;1.90;0.70;;;16.60;99.90;;;;;;4973360;28;20686;-78
2023/10/29 02:16:03;;;;;;;1.60;0.50;;;16.50;99.90;;;;;;4972895;28;21079;-78
2023/10/29 02:18:29;;;;;;;3.43;0.80;;;16.30;99.90;;;;;;4976504;28;20213;-78
2023/10/29 02:20:55;;;;;;;2.40;0.60;;;16.10;99.90;;;;;;4959680;28;20718;-78
2023/10/29 02:23:21;;;;;;;1.90;0.70;;;16.00;99.90;;;;;;4956131;28;20682;-78
2023/10/29 02:25:47;;;;;;;2.10;0.80;;;15.90;99.90;;;;;;4956825;28;20207;-79
2023/10/29 02:28:13;;;;;;;1.40;0.60;;;15.80;99.90;;;;;;4989122;28;20937;-78
2023/10/29 02:30:39;;;;;;;2.33;0.60;;;15.70;99.90;;;;;;4961992;28;20618;-78
2023/10/29 02:33:04;;;;;;;3.70;0.60;;;15.60;99.90;;;;;;4975416;28;20179;-78
2023/10/29 02:35:30;;;;;;;1.40;0.57;;;15.60;99.90;;;;;;4957658;28;20583;-78
2023/10/29 02:37:56;;;;;;;1.70;0.60;;;15.50;99.90;;;;;;4980258;28;20446;-78
2023/10/29 02:40:22;;;;;;;1.90;0.60;;;15.50;99.90;;;;;;4982733;28;20199;-78
2023/10/29 02:42:47;;;;;;;1.90;0.60;;;15.50;99.90;;;;;;4956713;28;20614;-79
2023/10/29 02:45:13;;;;;;;1.60;0.60;;;15.50;99.90;;;;;;4974560;28;20219;-78
2023/10/29 02:47:39;;;;;;;1.80;0.53;;;15.50;99.90;;;;;;4991484;28;20759;-78
2023/10/29 02:50:05;;;;;;;1.67;0.60;;;15.50;99.90;;;;;;4985309;28;20183;-78
2023/10/29 02:52:31;;;;;;;1.47;0.50;;;15.50;99.90;;;;;;4969283;28;20192;-78
2023/10/29 02:54:57;;;;;;;1.40;0.50;;;15.50;99.90;;;;;;4969112;28;21186;-79
2023/10/29 02:57:24;;;;;;;2.03;0.70;;;15.50;99.90;;;;;;4973440;28;20579;-78
2023/10/29 02:59:50;;;;;;;2.13;0.60;;;15.60;99.90;;;;;;4973112;28;20190;-78
2023/10/29 03:02:16;;;;;;;1.60;0.50;;;15.60;99.90;;;;;;4955802;28;20935;-79
2023/10/29 03:04:42;;;;;;;2.80;0.60;;;15.60;99.90;;;;;;4955524;28;20614;-79
2023/10/29 03:07:09;;;;;;;1.20;0.50;;;15.60;99.90;;;;;;4963438;28;20207;-79
2023/10/29 03:09:39;;;;;;;1.30;0.60;;;15.60;99.90;;;;;;4971956;28;21015;-79
2023/10/29 03:12:06;;;;;;;1.50;0.60;;;15.60;99.90;;;;;;4971517;28;20619;-79
2023/10/29 03:14:31;;;;;;;1.67;0.70;;;15.70;99.90;;;;;;4955565;28;20587;-79
2023/10/29 03:16:57;;;;;;;1.40;0.50;;;15.70;99.90;;;;;;4963073;28;20595;-79
2023/10/29 03:19:23;;;;;;;2.47;0.70;;;15.70;99.90;;;;;;4979394;28;20614;-78
2023/10/29 03:21:49;;;;;;;2.07;0.70;;;15.70;99.90;;;;;;4971341;28;20218;-79
2023/10/29 03:24:15;;;;;;;1.57;0.67;;;15.70;99.90;;;;;;4972727;28;20187;-79
2023/10/29 03:26:43;;;;;;;1.33;0.50;;;15.70;99.90;;;;;;4954822;28;20643;-79
2023/10/29 03:29:09;;;;;;;1.97;0.60;;;15.70;99.90;;;;;;4954917;28;20595;-79
2023/10/29 03:31:35;;;;;;;2.37;0.60;;;15.80;99.90;;;;;;4974584;28;20615;-79
2023/10/29 03:34:00;;;;;;;3.30;0.60;;;15.80;99.90;;;;;;4971368;28;20597;-78
2023/10/29 03:36:26;;;;;;;2.50;0.50;;;15.80;99.90;;;;;;4954700;28;20218;-79
2023/10/29 03:38:52;;;;;;;1.63;0.50;;;15.90;99.90;;;;;;4987522;28;20672;-78
2023/10/29 03:41:19;;;;;;;1.30;0.50;;;15.90;99.90;;;;;;4964662;28;20265;-79
2023/10/29 03:43:45;;;;;;;2.07;0.50;;;15.90;99.90;;;;;;4964960;28;20188;-78
2023/10/29 03:46:10;;;;;;;2.07;0.53;;;16.00;99.90;;;;;;4972412;28;20650;-79
2023/10/29 03:48:40;;;;;;;2.13;0.60;;;16.00;99.90;;;;;;4954594;28;20550;-79
2023/10/29 03:51:05;;;;;;;2.00;0.67;;;16.00;99.90;;;;;;4971581;28;20569;-79
2023/10/29 03:53:31;;;;;;;2.50;0.60;;;16.00;99.90;;;;;;4957582;28;20567;-79
2023/10/29 03:56:00;;;;;;;2.10;0.60;;;16.00;99.90;;;;;;4981667;28;20648;-79
2023/10/29 03:58:26;;;;;;;1.30;0.60;;;16.00;99.90;;;;;;4970230;28;20184;-78
2023/10/29 04:00:52;;;;;;;1.30;0.50;;;16.10;99.90;;;;;;4954822;28;20643;-79
2023/10/29 04:03:18;;;;;;;2.33;0.50;;;16.10;99.90;;;;;;4974271;28;20273;-79
2023/10/29 04:05:43;;;;;;;1.53;0.60;;;16.10;99.90;;;;;;4977267;28;20180;-78
2023/10/29 04:08:09;;;;;;;2.50;0.50;;;16.20;99.90;;;;;;4958251;28;20639;-79
2023/10/29 04:10:36;;;;;;;1.30;0.50;;;16.20;99.90;;;;;;4972210;28;20231;-79
2023/10/29 04:13:01;;;;;;;3.23;0.60;;;16.20;99.90;;;;;;4972210;28;21277;-79
2023/10/29 04:15:27;;;;;;;1.20;0.50;;;16.20;99.90;;;;;;4974761;28;20249;-78
2023/10/29 04:17:53;;;;;;;2.07;0.60;;;16.20;99.90;;;;;;4975588;28;20651;-78
2023/10/29 04:20:18;;;;;;;1.20;0.50;;;16.20;99.90;;;;;;4971582;28;20187;-79
2023/10/29 04:22:44;;;;;;;2.10;0.50;;;16.20;99.90;;;;;;4970748;28;20187;-79
2023/10/29 04:25:10;;;;;;;1.73;0.50;;;16.30;99.90;;;;;;4971904;28;20291;-79
2023/10/29 04:27:35;;;;;;;1.83;0.50;;;16.30;99.90;;;;;;4971629;28;20199;-79
2023/10/29 04:30:02;;;;;;;3.70;1.27;;;16.30;99.90;;;;;;4970891;28;20180;-79
2023/10/29 04:32:27;;;;;;;2.60;0.60;;;16.30;99.90;;;;;;4971989;28;20227;-79
2023/10/29 04:34:53;;;;;;;1.30;0.70;;;16.40;99.90;;;;;;4954492;28;21484;-79
2023/10/29 04:37:19;;;;;;;2.00;0.60;;;16.40;99.90;;;;;;4971738;28;20549;-79
2023/10/29 04:39:45;;;;;;;1.40;0.50;;;16.40;99.90;;;;;;4971852;28;20190;-79
2023/10/29 04:42:11;;;;;;;1.60;0.70;;;16.40;99.90;;;;;;4970147;28;20204;-79
2023/10/29 04:44:37;;;;;;;1.90;0.60;;;16.50;99.90;;;;;;4973406;28;20653;-79
2023/10/29 04:47:03;;;;;;;1.40;0.60;;;16.50;99.90;;;;;;4971767;28;20736;-78
2023/10/29 04:49:29;;;;;;;1.87;0.60;;;16.50;99.90;;;;;;4975590;28;20587;-78
2023/10/29 04:51:55;;;;;;;1.90;0.50;;;16.50;99.90;;;;;;4975386;28;20673;-78
2023/10/29 04:54:21;;;;;;;1.40;0.50;;;16.50;99.90;;;;;;4974024;28;20583;-78
2023/10/29 04:56:47;;;;;;;2.90;0.60;;;16.60;99.90;;;;;;4975423;28;21154;-78
2023/10/29 04:59:13;;;;;;;1.63;0.60;;;16.60;99.90;;;;;;4974330;28;20257;-79
2023/10/29 05:01:38;;;;;;;3.10;0.60;;;16.60;99.90;;;;;;4973992;28;20310;-78
2023/10/29 05:04:04;;;;;;;2.83;0.60;;;16.60;99.90;;;;;;4973617;28;20955;-79
2023/10/29 05:06:30;;;;;;;3.33;0.60;;;16.60;99.90;;;;;;4972748;28;20697;-77
2023/10/29 05:08:56;;;;;;;1.93;0.70;;;16.70;99.90;;;;;;4974011;28;20190;-78
2023/10/29 05:11:22;;;;;;;3.00;0.70;;;16.70;99.90;;;;;;4974857;28;20615;-78
2023/10/29 05:13:48;;;;;;;1.20;0.57;;;16.80;99.90;;;;;;4975172;28;20605;-78
2023/10/29 05:16:14;;;;;;;1.77;0.50;;;16.80;99.90;;;;;;4975243;28;20180;-78
2023/10/29 05:18:39;;;;;;;1.37;0.60;;;16.80;99.90;;;;;;4974663;28;20226;-78
2023/10/29 05:21:07;;;;;;;1.40;0.60;;;16.80;99.90;;;;;;4975686;28;20968;-78
2023/10/29 05:23:36;;;;;;;1.33;0.50;;;16.90;99.90;;;;;;4974617;28;20580;-78
2023/10/29 05:26:02;;;;;;;2.90;0.50;;;16.90;99.90;;;;;;4972078;28;21220;-78
2023/10/29 05:28:28;;;;;;;1.10;0.40;;;17.00;99.90;;;;;;4974090;28;20571;-78
2023/10/29 05:30:53;;;;;;;1.20;0.50;;;17.00;99.90;;;;;;4973975;28;20302;-77
2023/10/29 05:33:20;;;;;;;1.60;0.53;;;17.00;99.90;;;;;;4974422;28;20678;-77
2023/10/29 05:35:46;;;;;;;1.80;0.60;;;17.00;99.90;;;;;;4974772;28;20234;-77
2023/10/29 05:38:12;;;;;;;6.90;0.80;;;17.10;99.90;;;;;;4986439;28;20595;-78
2023/10/29 05:40:38;;;;;;;2.13;0.50;;;17.10;99.90;;;;;;4973641;28;20212;-78
2023/10/29 05:43:04;;;;;;;2.03;0.50;;;17.00;99.90;;;;;;4974840;28;20590;-78
2023/10/29 05:45:29;;;;;;;1.47;0.50;;;17.00;99.90;;;;;;4974519;28;20206;-78
2023/10/29 05:47:56;;;;;;;3.53;0.50;;;17.10;99.90;;;;;;4973148;28;20709;-78
2023/10/29 05:50:23;;;;;;;2.73;0.60;;;17.10;99.90;;;;;;4974224;28;20733;-78
2023/10/29 05:52:49;;;;;;;2.00;0.60;;;17.10;99.90;;;;;;4973266;28;20582;-77
2023/10/29 05:55:15;;;;;;;1.20;0.50;;;17.10;99.90;;;;;;4971859;28;21235;-77
2023/10/29 05:57:40;;;;;;;2.23;0.50;;;17.10;99.90;;;;;;4973226;28;20694;-76
2023/10/29 06:00:07;;;;;;;1.50;0.50;;;17.10;99.90;;;;;;4980886;28;20178;-77
2023/10/29 06:02:38;;;;;;;1.97;0.50;;;17.10;99.90;;;;;;4974329;28;20254;-77
2023/10/29 06:05:05;;;;;;;2.50;0.50;;;17.10;99.90;;;;;;4973067;28;20936;-77
2023/10/29 06:07:31;;;;;;;1.43;0.50;;;17.10;99.90;;;;;;4988901;28;20645;-77
2023/10/29 06:09:56;;;;;;;1.97;0.50;;;17.10;99.90;;;;;;4973937;28;20579;-75
2023/10/29 06:12:22;;;;;;;2.07;0.60;;;17.10;99.90;;;;;;4972619;28;20653;-76
2023/10/29 06:14:48;;;;;;;3.73;0.60;;;17.20;99.90;;;;;;4956309;28;20176;-76
2023/10/29 06:17:14;;;;;;;1.50;0.50;;;17.10;99.90;;;;;;4969251;28;20550;-76
2023/10/29 06:19:39;;;;;;;1.60;0.50;;;17.20;99.90;;;;;;4974208;28;20183;-75
2023/10/29 06:22:08;;;;;;;1.50;0.60;;;17.20;99.90;;;;;;4979172;28;20203;-75
2023/10/29 06:24:34;;;;;;;1.90;0.50;;;17.20;99.90;;;;;;4981124;28;20191;-75
2023/10/29 06:27:00;;;;;;;1.80;0.60;;;17.20;99.90;;;;;;4973547;28;20635;-76
2023/10/29 06:29:26;;;;;;;4.03;0.43;;;17.10;99.90;;;;;;4973667;28;20641;-75
2023/10/29 06:31:52;;;;;;;1.30;0.50;;;17.10;99.90;;;;;;4972478;28;21200;-76
2023/10/29 06:34:17;;;;;;;1.70;0.60;;;17.10;99.90;;;;;;4991308;28;20944;-76
2023/10/29 06:36:43;;;;;;;1.60;0.60;;;17.10;99.90;;;;;;4972707;28;20189;-75
2023/10/29 06:39:09;;;;;;;4.73;0.60;;;17.00;99.90;;;;;;4972097;28;20262;-76
2023/10/29 06:41:34;;;;;;;2.13;0.63;;;17.00;99.90;;;;;;4972167;28;20359;-75
2023/10/29 06:44:00;;;;;;;1.60;0.50;;;17.00;99.90;;;;;;4956285;28;20188;-75
2023/10/29 06:46:26;;;;;;;4.03;0.53;;;16.90;99.90;;;;;;4983119;28;20206;-77
2023/10/29 06:48:52;;;;;;;3.43;0.57;;;16.90;99.90;;;;;;4973583;28;20587;-76
2023/10/29 06:51:19;;;;;;;3.50;0.70;;;16.80;99.90;;;;;;4973305;28;20622;-77
2023/10/29 06:53:45;;;;;;;1.30;0.50;;;16.80;99.90;;;;;;4971915;28;20186;-76
2023/10/29 06:56:11;;;;;;;1.80;0.60;;;16.70;99.90;;;;;;4972366;28;20591;-76
2023/10/29 06:58:38;;;;;;;1.40;0.40;;;16.70;99.90;;;;;;4954030;28;20590;-75
2023/10/29 07:01:11;;;;;;;1.53;0.60;;;16.70;99.90;;;;;;4972321;28;20768;-77
2023/10/29 07:03:38;;;;;;;1.50;0.60;;;16.70;99.90;;;;;;4971215;28;20622;-76
2023/10/29 07:06:08;;;;;;;2.63;0.60;;;16.70;99.90;;;;;;4971762;28;20590;-77
2023/10/29 07:08:35;;;;;;;1.90;0.67;;;16.70;99.90;;;;;;4971193;28;20584;-78
2023/10/29 07:11:04;;;;;;;2.33;0.50;;;16.70;99.90;;;;;;4976785;28;20674;-75
2023/10/29 07:13:31;;;;;;;1.20;0.50;;;16.70;99.90;;;;;;4971942;28;20682;-75
2023/10/29 07:15:59;;;;;;;2.13;0.80;;;16.70;99.90;;;;;;4967374;28;20613;-76
2023/10/29 07:18:25;;;;;;;1.60;0.60;;;16.70;99.90;;;;;;4971256;28;20599;-76
2023/10/29 07:20:52;;;;;;;1.50;0.60;;;16.80;99.90;;;;;;4972733;28;20714;-76
2023/10/29 07:23:19;;;;;;;3.13;0.70;;;16.80;99.90;;;;;;4972792;28;20942;-75
2023/10/29 07:25:45;;;;;;;6.13;1.37;;;16.80;99.90;;;;;;4972874;28;20590;-76
2023/10/29 07:28:10;;;;;;;2.90;0.60;;;16.80;99.90;;;;;;4970998;28;20627;-76
2023/10/29 07:30:36;;;;;;;1.37;0.57;;;16.80;99.90;;;;;;4974135;28;21212;-76
2023/10/29 07:33:02;;;;;;;5.73;0.60;;;16.80;99.90;;;;;;4977331;28;20638;-76
2023/10/29 07:35:28;;;;;;;2.60;0.50;;;16.90;99.90;;;;;;4978041;28;20246;-76
2023/10/29 07:37:54;;;;;;;3.67;0.70;;;16.90;99.90;;;;;;4971132;28;20631;-76
2023/10/29 07:40:19;;;;;;;1.60;0.50;;;16.90;99.90;;;;;;4972510;28;21145;-76
2023/10/29 07:42:45;;;;;;;1.50;0.40;;;16.90;99.90;;;;;;4974792;28;20653;-75
2023/10/29 07:45:11;;;;;;;2.47;0.60;;;17.00;99.90;;;;;;4976535;28;20637;-76
2023/10/29 07:47:36;;;;;;;1.70;0.70;;;17.00;99.90;;;;;;4970983;28;20214;-75
2023/10/29 07:50:03;;;;;;;1.40;0.60;;;17.00;99.90;;;;;;4973748;28;20176;-75
2023/10/29 07:52:30;;;;;;;1.60;0.70;;;17.00;99.90;;;;;;4972316;28;20215;-75
2023/10/29 07:54:56;;;;;;;1.40;0.50;;;17.10;99.90;;;;;;4977480;28;21202;-76
2023/10/29 07:57:21;;;;;;;1.47;0.40;;;17.10;99.90;;;;;;4973758;28;20717;-76
2023/10/29 07:59:47;;;;;;;1.90;0.50;;;17.10;99.90;;;;;;4970721;28;20176;-76
2023/10/29 08:02:13;;;;;;;1.30;0.50;;;17.20;99.90;;;;;;4951734;28;20271;-76
2023/10/29 08:04:38;;;;;;;1.40;0.53;;;17.30;99.90;;;;;;4971555;28;20202;-76
2023/10/29 08:07:04;;;;;;;1.30;0.60;;;17.40;99.90;;;;;;4979921;28;20290;-76
2023/10/29 08:09:30;;;;;;;1.97;0.60;;;17.50;99.90;;;;;;4972253;28;20263;-76
2023/10/29 08:11:55;;;;;;;2.37;0.60;;;17.60;99.90;;;;;;4972119;28;20631;-76
2023/10/29 08:14:21;;;;;;;1.80;0.60;;;17.70;99.90;;;;;;4972080;28;20176;-76
2023/10/29 08:16:47;;;;;;;2.20;0.50;;;17.70;99.90;;;;;;4971220;28;20618;-76
2023/10/29 08:19:12;;;;;;;2.60;0.50;;;17.80;99.90;;;;;;4964689;28;20665;-76
2023/10/29 08:21:38;;;;;;;2.30;0.50;;;17.90;99.90;;;;;;4969363;28;20223;-76
2023/10/29 08:24:04;;;;;;;5.57;0.60;;;17.90;99.90;;;;;;4970723;28;20270;-75
2023/10/29 08:26:32;;;;;;;2.20;0.60;;;17.90;99.90;;;;;;4972827;28;20203;-76
2023/10/29 08:28:57;;;;;;;2.13;0.60;;;18.00;99.90;;;;;;4975690;28;20587;-76
2023/10/29 08:31:23;;;;;;;1.67;0.50;;;18.00;99.90;;;;;;4983108;28;20677;-78
2023/10/29 08:33:49;;;;;;;2.90;0.50;;;18.10;99.90;;;;;;4954877;28;20183;-77
2023/10/29 08:36:18;;;;;;;2.07;0.50;;;18.10;99.90;;;;;;4972175;28;20292;-76
2023/10/29 08:38:44;;;;;;;2.37;0.50;;;18.20;99.90;;;;;;4971877;28;20180;-77
2023/10/29 08:41:16;;;;;;;1.60;0.50;;;18.20;99.90;;;;;;4971711;28;20607;-77
2023/10/29 08:43:42;;;;;;;2.30;0.57;;;18.30;99.90;;;;;;4970081;28;20592;-77
2023/10/29 08:46:08;;;;;;;1.77;0.90;;;18.30;99.90;;;;;;4971525;28;20584;-77
2023/10/29 08:48:34;;;;;;;2.17;0.50;;;18.40;99.90;;;;;;4970184;28;20614;-77
2023/10/29 08:51:00;;;;;;;2.10;0.60;;;18.40;99.90;;;;;;4965619;28;20634;-77
2023/10/29 08:53:26;;;;;;;2.80;0.50;;;18.40;99.90;;;;;;4967275;28;20190;-77
2023/10/29 08:55:52;;;;;;;1.80;0.50;;;18.40;99.90;;;;;;4970831;28;21244;-77
2023/10/29 08:58:18;;;;;;;2.90;0.90;;;18.40;99.90;;;;;;4970659;28;20187;-77
2023/10/29 09:00:45;;;;;;;1.53;0.50;;;18.40;99.90;;;;;;4986557;28;20597;-77
2023/10/29 09:03:13;;;;;;;2.90;0.57;;;18.40;99.90;;;;;;4975958;28;20654;-76
2023/10/29 09:05:39;;;;;;;1.60;0.60;;;18.40;99.90;;;;;;4980409;28;20598;-76
2023/10/29 09:08:06;;;;;;;2.27;0.60;;;18.40;99.90;;;;;;4976361;28;20672;-75
2023/10/29 09:10:32;;;;;;;1.60;0.50;;;18.40;99.90;;;;;;4978293;28;20631;-76
2023/10/29 09:12:58;;;;;;;1.50;0.50;;;18.40;99.90;;;;;;4977658;28;20594;-76
2023/10/29 09:15:25;;;;;;;2.17;0.50;;;18.40;99.90;;;;;;4975071;28;20585;-77
2023/10/29 09:17:51;;;;;;;2.63;0.60;;;18.40;99.90;;;;;;4975089;28;21427;-78
2023/10/29 09:20:17;;;;;;;3.10;0.60;;;18.40;99.90;;;;;;4974518;28;20644;-77
2023/10/29 09:22:42;;;;;;;2.37;0.60;;;18.30;99.90;;;;;;4989050;28;20980;-78
2023/10/29 09:25:09;;;;;;;1.50;0.40;;;18.40;99.90;;;;;;4991029;28;20709;-78
2023/10/29 09:27:35;;;;;;;1.53;0.57;;;18.40;99.90;;;;;;4990629;28;20211;-77
2023/10/29 09:30:01;;;;;;;2.93;0.60;;;18.40;99.90;;;;;;4982612;28;20632;-77
2023/10/29 09:32:27;;;;;;;1.90;0.50;;;18.50;99.90;;;;;;4989921;28;20644;-78
2023/10/29 09:34:53;;;;;;;1.83;0.60;;;18.60;99.90;;;;;;4994697;28;20557;-78
2023/10/29 09:37:18;;;;;;;1.30;0.50;;;18.60;99.90;;;;;;4993114;28;20178;-78
2023/10/29 09:39:44;;;;;;;2.20;0.60;;;18.70;99.90;;;;;;4986916;28;20662;-76
2023/10/29 09:42:11;;;;;;;1.57;0.63;;;18.70;99.90;;;;;;4994449;28;20198;-76
2023/10/29 09:44:44;;;;;;;1.30;0.50;;;18.60;99.90;;;;;;4985284;28;20207;-76
2023/10/29 09:47:15;;;;;;;1.40;0.53;;;18.60;99.90;;;;;;4989591;28;20651;-76
2023/10/29 09:49:41;;;;;;;1.50;0.60;;;18.60;99.90;;;;;;4990975;28;20672;-76
2023/10/29 09:52:08;;;;;;;1.40;0.50;;;18.50;99.90;;;;;;4995192;28;20672;-76
2023/10/29 09:54:35;;;;;;;1.63;0.60;;;18.50;99.90;;;;;;4975334;28;20586;-76
2023/10/29 09:57:01;;;;;;;1.53;0.60;;;18.40;99.90;;;;;;4981361;28;20734;-75
2023/10/29 09:59:28;;;;;;;2.70;0.50;;;18.40;99.90;;;;;;4989126;28;20991;-75
2023/10/29 10:01:54;;;;;;;2.87;0.70;;;18.40;99.90;;;;;;4985031;28;20210;-76
2023/10/29 10:04:20;;;;;;;1.50;0.57;;;18.50;99.90;;;;;;4994274;28;21171;-75
2023/10/29 10:06:48;;;;;;;2.27;0.50;;;18.70;99.90;;;;;;4985547;28;20683;-75
2023/10/29 10:09:14;;;;;;;1.60;0.60;;;18.70;99.90;;;;;;4994234;28;20194;-76
2023/10/29 10:11:40;;;;;;;2.03;0.83;;;18.80;99.90;;;;;;4992320;28;20606;-76
2023/10/29 10:14:05;;;;;;;1.93;0.50;;;18.80;99.90;;;;;;4987530;28;20648;-76
2023/10/29 10:16:31;;;;;;;2.50;0.50;;;18.80;99.90;;;;;;4986735;28;20414;-76
2023/10/29 10:18:58;;;;;;;1.60;0.63;;;18.80;99.90;;;;;;4987007;28;20170;-76
2023/10/29 10:21:39;;;;;;;1.90;0.80;;;18.80;99.90;;;;;;4980811;28;20243;-75
2023/10/29 10:24:05;;;;;;;1.60;0.60;;;18.70;99.90;;;;;;4979115;28;20574;-75
2023/10/29 10:26:36;;;;;;;1.97;0.57;;;18.80;99.90;;;;;;4976723;28;20630;-75
2023/10/29 10:29:05;;;;;;;1.90;0.63;;;18.80;99.90;;;;;;4972832;28;20591;-74
2023/10/29 10:31:35;;;;;;;4.70;0.80;;;18.90;99.90;;;;;;4973994;28;20611;-74
2023/10/29 10:34:15;;;;;;;1.60;0.60;;;19.00;99.90;;;;;;4972735;28;20584;-75
2023/10/29 10:36:42;;;;;;;2.40;0.70;;;19.10;99.90;;;;;;4973863;28;20964;-74
2023/10/29 10:39:08;;;;;;;2.20;0.60;;;19.20;99.90;;;;;;4972455;28;20579;-75
2023/10/29 10:41:42;;;;;;;1.90;0.60;;;19.30;99.90;;;;;;4964657;28;20620;-75
2023/10/29 10:44:10;;;;;;;2.13;0.60;;;19.30;99.90;;;;;;4972413;28;20916;-75
2023/10/29 10:46:37;;;;;;;1.70;0.70;;;19.30;99.90;;;;;;4974039;28;20618;-75
2023/10/29 10:49:09;;;;;;;6.90;0.60;;;19.30;99.90;;;;;;4974850;28;20598;-74
2023/10/29 10:51:36;;;;;;;2.43;0.50;;;19.30;99.90;;;;;;4973579;28;20673;-75
2023/10/29 10:54:03;;;;;;;2.20;0.70;;;19.20;99.90;;;;;;4976372;28;20618;-74
2023/10/29 10:56:36;;;;;;;2.10;0.60;;;19.20;99.90;;;;;;4981623;28;20674;-74
2023/10/29 10:59:07;;;;;;;2.07;0.60;;;19.20;99.90;;;;;;4988043;28;20674;-74
2023/10/29 11:01:40;;;;;;;3.20;0.70;;;19.20;99.90;;;;;;4981291;28;20721;-74
2023/10/29 11:04:08;;;;;;;5.40;0.80;;;19.20;99.90;;;;;;4979766;28;20589;-75
2023/10/29 11:06:38;;;;;;;1.77;0.63;;;19.20;99.90;;;;;;4959093;28;20678;-75
2023/10/29 11:09:05;;;;;;;3.03;0.60;;;19.20;99.90;;;;;;4973017;28;20629;-76
2023/10/29 11:11:38;;;;;;;2.10;0.40;;;19.30;99.90;;;;;;4988928;28;20614;-76
2023/10/29 11:14:12;;;;;;;1.60;0.60;;;19.30;99.90;;;;;;4972864;28;20681;-76
2023/10/29 11:16:54;;;;;;;2.03;0.60;;;19.30;99.90;;;;;;4975522;28;20666;-75
2023/10/29 11:19:39;;;;;;;2.03;0.60;;;19.40;99.90;;;;;;4987116;28;20754;-74
2023/10/29 11:22:19;;;;;;;1.60;0.50;;;19.40;99.90;;;;;;4977675;28;20952;-74
2023/10/29 11:25:08;;;;;;;1.50;0.50;;;19.40;99.90;;;;;;4981296;28;20595;-74
2023/10/29 11:27:37;;;;;;;1.50;0.40;;;19.40;99.90;;;;;;4969573;28;21219;-75
2023/10/29 11:30:14;;;;;;;1.20;0.50;;;19.30;99.90;;;;;;4955284;28;20579;-75
2023/10/29 11:32:41;;;;;;;1.10;0.40;;;19.30;99.90;;;;;;4972794;28;20678;-74
2023/10/29 11:35:24;;;;;;;1.50;0.60;;;19.30;99.90;;;;;;4980672;28;20601;-74
2023/10/29 11:37:52;;;;;;;1.93;0.50;;;19.30;99.90;;;;;;4971315;28;20598;-75
2023/10/29 11:40:23;;;;;;;1.63;0.50;;;19.30;99.90;;;;;;4971509;28;21187;-75
2023/10/29 11:42:53;;;;;;;1.60;0.60;;;19.40;99.90;;;;;;4973272;28;20951;-75
2023/10/29 11:45:28;;;;;;;1.50;0.60;;;19.50;99.90;;;;;;4971516;28;20610;-75
2023/10/29 11:48:06;;;;;;;1.37;0.50;;;19.60;99.90;;;;;;4979202;28;20634;-75
2023/10/29 11:50:33;;;;;;;1.40;0.50;;;19.80;99.90;;;;;;4972860;28;20606;-75
2023/10/29 11:52:58;;;;;;;2.20;0.50;;;19.90;99.90;;;;;;4980136;28;20666;-75
2023/10/29 11:55:28;;;;;;;2.40;0.87;;;20.00;99.90;;;;;;4971257;28;21114;-75
2023/10/29 11:57:55;;;;;;;1.57;0.50;;;20.10;99.90;;;;;;4976564;28;20604;-75
2023/10/29 12:00:23;;;;;;;1.60;0.40;;;20.20;99.90;;;;;;4971481;28;20638;-75
2023/10/29 12:02:49;;;;;;;1.40;0.40;;;20.20;99.90;;;;;;4972755;28;20598;-75
2023/10/29 12:05:15;;;;;;;1.43;0.43;;;20.10;99.90;;;;;;4971193;28;20590;-75
2023/10/29 12:07:41;;;;;;;1.20;0.40;;;20.10;99.90;;;;;;4972257;28;20665;-75
2023/10/29 12:10:07;;;;;;;1.60;0.50;;;20.10;99.90;;;;;;4977807;28;20619;-75
2023/10/29 12:12:34;;;;;;;2.50;0.60;;;20.00;99.90;;;;;;4972296;28;20296;-75
2023/10/29 12:15:01;;;;;;;1.70;0.50;;;20.00;99.90;;;;;;4963241;28;20579;-75
2023/10/29 12:17:28;;;;;;;1.30;0.50;;;19.90;99.90;;;;;;4972244;28;20594;-75
2023/10/29 12:19:54;;;;;;;1.50;0.63;;;19.80;99.90;;;;;;4974986;28;20642;-75
2023/10/29 12:22:25;;;;;;;1.50;0.50;;;19.80;99.90;;;;;;4988903;28;20626;-75
2023/10/29 12:24:58;;;;;;;1.60;0.67;;;19.70;99.90;;;;;;4985590;28;20626;-75
2023/10/29 12:27:25;;;;;;;1.53;0.50;;;19.70;99.90;;;;;;4954454;28;20643;-75
2023/10/29 12:29:51;;;;;;;1.60;0.57;;;19.60;99.90;;;;;;4970637;28;20948;-75
2023/10/29 12:32:24;;;;;;;1.30;0.50;;;19.60;99.90;;;;;;4985379;28;21082;-75
2023/10/29 12:34:54;;;;;;;1.60;0.60;;;19.60;99.90;;;;;;4970774;28;20751;-75
2023/10/29 12:37:24;;;;;;;1.33;0.50;;;19.60;99.90;;;;;;4970510;28;20579;-75
2023/10/29 12:39:54;;;;;;;1.30;0.50;;;19.60;99.90;;;;;;4972007;28;20618;-75
2023/10/29 12:42:21;;;;;;;1.30;0.50;;;19.70;99.90;;;;;;4970420;28;20623;-75
2023/10/29 12:44:53;;;;;;;2.17;0.40;;;19.70;99.90;;;;;;4984135;28;21018;-75
2023/10/29 12:47:20;;;;;;;2.43;0.70;;;19.70;99.90;;;;;;4978106;28;21039;-75